Portada
METAR-TAF:

METAR-TAF

Aeroports :

Waterford, Irlanda

latitud: 52-11-14N, longitud: 7-05-13W, altitud: 36 m

Observació

L'informe es va fer fa 32 minuts, a les 12:00 UTC
Vent 3 kt del Est
Temperatura 7°C
Humitat 87%
Pressió 1018 hPa
Visibilitat 10 km o més
sense núvols per sota de 1500 mi sense presència de cumulonimbus.

METAR: EIWF 181200Z 08003KT CAVOK 07/05 Q1018

Hora: 12:32 (12:32 UTC)

Pronòstic

L'informe es va fer fa 1 hora i 32 minuts, a les 11:00 UTC
Pronòstic vàlid del 18 a les 12 UTC al 18 a les 21 UTC
Vent 3 kt amb direcció variable
Visibilitat 10 km o més
Escasses núvols a una alçada de 3000 ft
Evolucionant progressivament
l' 18 a les 13 UTC al 18 a les 15 UTC
Vent 6 kt del Sud/Sud-Est
Evolucionant progressivament
l' 18 a les 15 UTC al 18 a les 17 UTC
Vent 10 kt del Sud
Evolucionant progressivament
l' 18 a les 19 UTC al 18 a les 21 UTC
Vent 15 kt del Sud

TAF: EIWF 181100Z 1812/1821 VRB03KT 9999 FEW030 BECMG 1813/1815 15006KT BECMG 1815/1817 19010KT BECMG 1819/1821 18015KT

Observacions i pronòstics meteorològics de més de 4000 aeroports (METAR i TAF).

Les estacions disponibles són els punts grocs i vermells al mapa.

Posi el ratolí al punt desitjat per veure el nom de l'estació.

Feu clic per veure les observacions i els pronòstics meteorològics.

Per canviar el mapa: feu clic els botons verds amb una creu de color negre per apropar; al botó verd amb un guió per allunyar la imatge; o en les fletxes verdes per a mapes adjacents.


METAR-TAF: